Time;durP1;ratioP1;P1;durP2;ratioP2;P2;SDS_P1;SDS_P2;PMS_P1;PMS_P2;Temp;Humidity;BMP_temperature;BMP_pressure;BME280_temperature;BME280_humidity;BME280_pressure;Samples;Min_cycle;Max_cycle;Signal;HPM_P1;HPM_P2
2022/01/10 00:01:38;;;;;;;0.90;0.73;;;9.80;94.20;;;;;;5076963;28;20303;-71
2022/01/10 00:04:11;;;;;;;0.75;0.55;;;9.70;94.00;;;;;;5085077;28;20220;-72
2022/01/10 00:06:42;;;;;;;1.63;0.80;;;9.70;94.50;;;;;;5083686;28;20215;-73
2022/01/10 00:09:13;;;;;;;0.93;0.93;;;9.50;94.50;;;;;;5085235;28;20240;-73
2022/01/10 00:11:44;;;;;;;5.47;1.00;;;9.50;94.50;;;;;;5067613;28;20607;-72
2022/01/10 00:14:15;;;;;;;1.60;1.45;;;9.40;94.20;;;;;;5084498;28;20295;-73
2022/01/10 00:16:47;;;;;;;1.57;1.10;;;9.40;94.80;;;;;;5086046;28;20287;-72
2022/01/10 00:19:20;;;;;;;0.70;0.70;;;9.30;95.10;;;;;;5078179;28;20489;-72
2022/01/10 00:21:51;;;;;;;1.07;0.73;;;9.30;94.90;;;;;;5077325;28;20213;-74
2022/01/10 00:24:22;;;;;;;1.20;1.00;;;9.30;95.00;;;;;;5086641;28;20488;-72
2022/01/10 00:26:52;;;;;;;0.80;0.80;;;9.20;94.70;;;;;;5086109;28;20525;-73
2022/01/10 00:29:23;;;;;;;0.80;0.80;;;9.20;94.90;;;;;;5082901;28;20670;-73
2022/01/10 00:31:57;;;;;;;2.38;0.82;;;9.20;95.10;;;;;;5083017;28;20217;-73
2022/01/10 00:34:30;;;;;;;0.80;0.80;;;9.10;95.00;;;;;;5086286;28;20315;-73
2022/01/10 00:37:04;;;;;;;0.85;0.73;;;9.10;95.00;;;;;;5088138;28;20217;-73
2022/01/10 00:39:36;;;;;;;2.35;0.93;;;9.10;94.80;;;;;;5088579;28;20387;-73
2022/01/10 00:42:07;;;;;;;0.80;0.80;;;9.00;95.00;;;;;;5086137;28;20299;-73
2022/01/10 00:44:44;;;;;;;0.80;0.70;;;8.90;95.40;;;;;;5083097;28;20216;-71
2022/01/10 00:47:16;;;;;;;1.70;1.20;;;8.90;95.60;;;;;;5082781;28;20255;-72
2022/01/10 00:49:49;;;;;;;1.35;1.00;;;8.80;95.40;;;;;;5080453;28;20215;-73
2022/01/10 00:52:27;;;;;;;0.80;0.80;;;8.80;95.10;;;;;;5078642;28;20210;-74
2022/01/10 00:54:58;;;;;;;1.80;0.95;;;8.90;95.40;;;;;;5086389;28;20220;-72
2022/01/10 00:57:31;;;;;;;1.48;0.80;;;8.90;95.20;;;;;;5083487;28;20255;-73
2022/01/10 01:00:03;;;;;;;0.80;0.80;;;8.80;95.40;;;;;;5085742;28;20238;-72
2022/01/10 01:02:34;;;;;;;0.80;0.80;;;8.80;95.60;;;;;;5089188;28;20366;-73
2022/01/10 01:05:11;;;;;;;1.50;0.93;;;8.80;95.40;;;;;;5088243;28;20662;-73
2022/01/10 01:07:42;;;;;;;1.00;0.93;;;8.80;95.50;;;;;;5085067;28;20222;-74
2022/01/10 01:13:05;;;;;;;1.10;1.00;;;8.60;95.50;;;;;;5087451;28;20295;-74
2022/01/10 01:16:07;;;;;;;1.35;1.27;;;8.60;95.40;;;;;;5082086;28;22446;-72
2022/01/10 01:19:06;;;;;;;0.88;0.82;;;8.60;95.80;;;;;;5082064;28;20822;-71
2022/01/10 01:24:28;;;;;;;2.55;1.55;;;8.50;95.80;;;;;;5078632;28;20296;-72
2022/01/10 01:27:03;;;;;;;1.10;1.00;;;8.50;95.90;;;;;;5086839;28;20220;-71
2022/01/10 01:29:34;;;;;;;1.50;0.85;;;8.50;96.00;;;;;;5078473;28;20219;-73
2022/01/10 01:32:09;;;;;;;1.60;1.30;;;8.50;95.80;;;;;;5084500;28;20212;-70
2022/01/10 01:34:40;;;;;;;1.23;0.90;;;8.40;96.10;;;;;;5090391;28;20231;-71
2022/01/10 01:37:15;;;;;;;1.30;0.82;;;8.40;96.10;;;;;;5079651;28;20273;-73
2022/01/10 01:39:48;;;;;;;0.80;0.80;;;8.30;96.30;;;;;;5084157;28;20229;-74
2022/01/10 01:42:32;;;;;;;0.98;0.88;;;8.30;96.30;;;;;;5086120;28;20212;-76
2022/01/10 01:45:06;;;;;;;1.17;1.05;;;8.30;96.40;;;;;;5086160;28;20664;-70
2022/01/10 01:47:37;;;;;;;0.85;0.70;;;8.20;97.00;;;;;;5084201;28;20557;-69
2022/01/10 01:50:10;;;;;;;1.45;1.08;;;8.10;96.70;;;;;;5086743;28;20211;-70
2022/01/10 01:52:45;;;;;;;1.38;1.08;;;8.00;96.80;;;;;;5079740;28;20310;-73
2022/01/10 01:55:15;;;;;;;0.73;0.73;;;8.10;97.00;;;;;;5086741;28;20754;-72
2022/01/10 01:57:47;;;;;;;0.80;0.80;;;8.00;97.00;;;;;;5087896;28;20296;-72
2022/01/10 02:00:20;;;;;;;0.70;0.60;;;8.00;96.90;;;;;;5086470;28;20228;-70
2022/01/10 02:02:51;;;;;;;1.77;1.05;;;8.00;97.00;;;;;;5089226;28;20307;-69
2022/01/10 02:05:22;;;;;;;1.98;0.80;;;7.90;97.20;;;;;;5079564;28;20215;-69
2022/01/10 02:07:55;;;;;;;0.80;0.80;;;7.90;97.30;;;;;;5073183;28;20209;-70
2022/01/10 02:10:26;;;;;;;1.15;1.05;;;7.90;97.90;;;;;;5085111;28;20220;-69
2022/01/10 02:12:57;;;;;;;1.20;1.10;;;7.90;97.20;;;;;;5087676;28;20215;-73
2022/01/10 02:15:34;;;;;;;1.30;1.20;;;7.90;97.80;;;;;;5085753;28;20612;-71
2022/01/10 02:18:05;;;;;;;1.17;1.10;;;7.90;98.70;;;;;;5083085;28;20208;-67
2022/01/10 02:20:37;;;;;;;1.25;0.93;;;7.80;98.20;;;;;;5088833;28;20220;-72
2022/01/10 02:23:09;;;;;;;1.40;1.00;;;7.80;98.10;;;;;;5088142;28;20216;-73
2022/01/10 02:25:40;;;;;;;1.67;1.27;;;7.80;98.00;;;;;;5083072;28;20715;-71
2022/01/10 02:28:10;;;;;;;1.10;1.00;;;7.80;98.10;;;;;;5088054;28;20216;-72
2022/01/10 02:30:42;;;;;;;1.30;1.20;;;7.80;98.00;;;;;;5079525;28;20205;-72
2022/01/10 02:33:13;;;;;;;1.05;1.02;;;7.80;98.40;;;;;;5086518;28;20211;-74
2022/01/10 02:35:54;;;;;;;1.38;1.27;;;7.80;98.20;;;;;;5087921;28;20219;-78
2022/01/10 02:38:25;;;;;;;1.45;1.35;;;7.70;98.60;;;;;;5084780;28;20213;-74
2022/01/10 02:40:57;;;;;;;2.40;1.30;;;7.70;98.40;;;;;;5087500;28;20246;-74
2022/01/10 02:43:28;;;;;;;1.20;0.90;;;7.60;99.00;;;;;;5091499;28;20204;-73
2022/01/10 02:46:02;;;;;;;0.80;0.80;;;7.60;98.90;;;;;;5087022;28;20216;-73
2022/01/10 02:48:33;;;;;;;0.90;0.80;;;7.60;99.60;;;;;;5088395;28;20278;-72
2022/01/10 02:51:05;;;;;;;1.23;1.15;;;7.60;99.00;;;;;;5082587;28;20220;-72
2022/01/10 02:53:36;;;;;;;3.25;1.05;;;7.60;99.20;;;;;;5088419;28;20209;-73
2022/01/10 02:56:07;;;;;;;1.88;1.20;;;7.60;99.80;;;;;;5084490;28;20323;-72
2022/01/10 02:58:38;;;;;;;0.95;0.85;;;7.60;99.20;;;;;;5088281;28;20222;-72
2022/01/10 03:01:09;;;;;;;1.38;1.27;;;7.60;99.10;;;;;;5084738;28;20246;-70
2022/01/10 03:03:40;;;;;;;1.25;0.88;;;7.60;99.40;;;;;;5093516;28;20311;-72
2022/01/10 03:06:13;;;;;;;3.20;0.93;;;7.50;99.90;;;;;;5087401;28;20575;-72
2022/01/10 03:08:44;;;;;;;2.25;1.15;;;7.50;99.70;;;;;;5087701;28;20231;-72
2022/01/10 03:11:15;;;;;;;0.98;0.80;;;7.40;99.90;;;;;;5089588;28;20200;-72
2022/01/10 03:13:49;;;;;;;1.15;1.00;;;7.40;99.80;;;;;;5087207;28;20208;-71
2022/01/10 03:16:19;;;;;;;0.98;0.90;;;7.40;99.80;;;;;;5088611;28;20216;-72
2022/01/10 03:18:50;;;;;;;2.17;0.90;;;7.40;99.90;;;;;;5091002;28;20207;-73
2022/01/10 03:21:23;;;;;;;1.00;1.00;;;7.30;99.90;;;;;;5089515;28;20685;-71
2022/01/10 03:23:54;;;;;;;1.60;1.00;;;7.30;99.90;;;;;;5086844;28;20260;-72
2022/01/10 03:26:27;;;;;;;1.10;0.95;;;7.30;99.90;;;;;;5087196;28;20211;-70
2022/01/10 03:28:57;;;;;;;1.80;0.85;;;7.30;99.90;;;;;;5086799;28;20214;-70
2022/01/10 03:31:28;;;;;;;2.47;0.80;;;7.30;99.90;;;;;;5083137;28;20204;-70
2022/01/10 03:33:59;;;;;;;1.35;1.25;;;7.20;99.90;;;;;;5074270;28;20303;-70
2022/01/10 03:36:32;;;;;;;1.20;1.20;;;7.20;99.90;;;;;;5085848;28;20208;-71
2022/01/10 03:39:03;;;;;;;1.20;1.10;;;7.20;99.90;;;;;;5084603;28;20217;-72
2022/01/10 03:41:35;;;;;;;2.60;2.40;;;7.30;99.90;;;;;;5087260;28;20788;-71
2022/01/10 03:44:07;;;;;;;1.45;1.20;;;7.40;99.90;;;;;;5082878;28;20222;-70
2022/01/10 03:46:38;;;;;;;0.90;0.90;;;7.20;99.90;;;;;;5082876;28;20205;-71
2022/01/10 03:49:09;;;;;;;1.67;1.30;;;7.20;99.90;;;;;;5086770;28;20555;-71
2022/01/10 03:51:42;;;;;;;3.38;2.85;;;7.20;99.90;;;;;;5088555;28;20205;-74
2022/01/10 03:54:13;;;;;;;2.35;2.25;;;7.30;99.90;;;;;;5089660;28;20628;-69
2022/01/10 03:56:44;;;;;;;2.20;1.50;;;7.30;99.90;;;;;;5075872;28;20586;-70
2022/01/10 03:59:16;;;;;;;1.23;1.00;;;7.20;99.90;;;;;;5086406;28;20213;-69
2022/01/10 04:01:46;;;;;;;3.65;1.55;;;7.20;99.90;;;;;;5088268;28;20228;-71
2022/01/10 04:04:18;;;;;;;1.67;1.58;;;7.20;99.90;;;;;;5087701;28;20340;-69
2022/01/10 04:06:50;;;;;;;3.65;1.10;;;7.20;99.90;;;;;;5091466;28;20234;-70
2022/01/10 04:09:24;;;;;;;1.40;1.20;;;7.20;99.90;;;;;;5086880;28;20332;-72
2022/01/10 04:11:55;;;;;;;1.55;1.45;;;7.10;99.90;;;;;;5089098;28;20212;-70
2022/01/10 04:14:26;;;;;;;1.23;1.13;;;7.10;99.90;;;;;;5084214;28;20255;-70
2022/01/10 04:16:57;;;;;;;1.40;1.05;;;7.10;99.90;;;;;;5090545;28;20752;-69
2022/01/10 04:19:28;;;;;;;1.63;1.27;;;7.00;99.90;;;;;;5087291;28;20223;-70
2022/01/10 04:22:00;;;;;;;1.38;1.20;;;6.90;99.90;;;;;;5085949;28;20613;-69
2022/01/10 04:24:31;;;;;;;2.83;1.50;;;6.90;99.90;;;;;;5082817;28;20216;-69
2022/01/10 04:27:02;;;;;;;2.17;1.05;;;6.80;99.90;;;;;;5088930;28;20558;-70
2022/01/10 04:29:33;;;;;;;1.40;1.30;;;6.90;99.90;;;;;;5090766;28;20258;-69
2022/01/10 04:32:04;;;;;;;1.08;1.00;;;7.00;99.90;;;;;;5088556;28;20644;-68
2022/01/10 04:34:35;;;;;;;1.08;1.08;;;7.00;99.90;;;;;;5090276;28;20216;-69
2022/01/10 04:37:08;;;;;;;1.23;1.13;;;6.90;99.90;;;;;;5085700;28;20690;-68
2022/01/10 04:39:38;;;;;;;1.70;1.60;;;6.90;99.90;;;;;;5076253;28;20212;-69
2022/01/10 04:42:10;;;;;;;1.67;1.55;;;7.00;99.90;;;;;;5088960;28;20235;-69
2022/01/10 04:44:41;;;;;;;1.50;1.40;;;7.00;99.90;;;;;;5088123;28;20223;-68
2022/01/10 04:47:13;;;;;;;1.30;1.20;;;6.90;99.90;;;;;;5089764;28;20228;-69
2022/01/10 04:50:03;;;;;;;2.95;2.65;;;6.90;99.90;;;;;;5088068;28;20538;-70
2022/01/10 04:52:36;;;;;;;3.50;2.92;;;6.90;99.90;;;;;;5088108;28;20636;-70
2022/01/10 04:55:08;;;;;;;2.90;2.70;;;6.90;99.90;;;;;;5087770;28;20581;-68
2022/01/10 04:57:40;;;;;;;3.60;2.25;;;6.80;99.90;;;;;;5085935;28;20647;-69
2022/01/10 05:00:13;;;;;;;4.13;3.72;;;6.70;99.90;;;;;;5082580;28;20216;-69
2022/01/10 05:02:45;;;;;;;2.33;2.13;;;6.60;99.90;;;;;;5071107;28;20684;-70
2022/01/10 05:05:17;;;;;;;2.05;1.85;;;6.60;99.90;;;;;;5084916;28;20300;-70
2022/01/10 05:07:49;;;;;;;2.95;2.75;;;6.60;99.90;;;;;;5086401;28;20213;-71
2022/01/10 05:10:20;;;;;;;2.65;2.00;;;6.50;99.90;;;;;;5089474;28;20232;-70
2022/01/10 05:12:51;;;;;;;2.88;1.77;;;6.60;99.90;;;;;;5086780;28;20208;-71
2022/01/10 05:15:22;;;;;;;2.00;1.35;;;6.60;99.90;;;;;;5087475;28;20530;-72
2022/01/10 05:17:53;;;;;;;1.70;1.60;;;6.70;99.90;;;;;;5084893;28;20651;-70
2022/01/10 05:20:24;;;;;;;1.67;1.58;;;6.70;99.90;;;;;;5086454;28;20311;-70
2022/01/10 05:22:56;;;;;;;2.35;1.58;;;6.60;99.90;;;;;;5087218;28;20587;-70
2022/01/10 05:25:27;;;;;;;1.05;1.02;;;6.70;99.90;;;;;;5088055;28;20218;-70
2022/01/10 05:27:58;;;;;;;1.15;1.05;;;6.70;99.90;;;;;;5088945;28;20214;-70
2022/01/10 05:30:31;;;;;;;0.90;0.90;;;6.70;99.90;;;;;;5084730;28;20216;-69
2022/01/10 05:33:02;;;;;;;1.30;1.17;;;6.50;99.90;;;;;;5088618;28;20212;-69
2022/01/10 05:35:33;;;;;;;1.25;1.10;;;6.50;99.90;;;;;;5086060;28;20216;-72
2022/01/10 05:38:06;;;;;;;1.05;1.05;;;6.50;99.90;;;;;;5090178;28;20217;-72
2022/01/10 05:40:36;;;;;;;1.40;1.30;;;6.60;99.90;;;;;;5087919;28;20238;-75
2022/01/10 05:43:07;;;;;;;1.75;1.35;;;6.60;99.90;;;;;;5088824;28;20212;-76
2022/01/10 05:45:38;;;;;;;0.93;0.90;;;6.70;99.90;;;;;;5086382;28;20211;-70
2022/01/10 05:48:13;;;;;;;1.25;1.02;;;6.60;99.90;;;;;;5089578;28;20239;-71
2022/01/10 05:50:44;;;;;;;1.08;1.08;;;6.60;99.90;;;;;;5088444;28;20493;-70
2022/01/10 05:53:17;;;;;;;1.17;1.00;;;6.60;99.90;;;;;;5088208;28;20213;-69
2022/01/10 05:55:49;;;;;;;3.03;1.10;;;6.50;99.90;;;;;;5087518;28;20213;-74
2022/01/10 05:58:20;;;;;;;1.35;1.05;;;6.50;99.90;;;;;;5083404;28;20288;-75
2022/01/10 06:00:51;;;;;;;1.40;1.30;;;6.40;99.90;;;;;;5079453;28;22179;-74
2022/01/10 06:03:21;;;;;;;1.08;1.08;;;6.50;99.90;;;;;;5087043;28;20678;-77
2022/01/10 06:05:53;;;;;;;1.30;1.10;;;6.50;99.90;;;;;;5085152;28;20215;-77
2022/01/10 06:08:25;;;;;;;0.90;0.90;;;6.50;99.90;;;;;;5086434;28;20204;-74
2022/01/10 06:10:56;;;;;;;1.50;1.38;;;6.50;99.90;;;;;;5088083;28;20215;-74
2022/01/10 06:13:27;;;;;;;1.75;1.15;;;6.50;99.90;;;;;;5089978;28;20243;-76
2022/01/10 06:15:57;;;;;;;1.20;1.10;;;6.40;99.90;;;;;;5085213;28;20208;-71
2022/01/10 06:18:28;;;;;;;0.80;0.80;;;6.40;99.90;;;;;;5080427;28;20250;-69
2022/01/10 06:20:59;;;;;;;1.13;1.02;;;6.40;99.90;;;;;;5085883;28;20558;-69
2022/01/10 06:23:31;;;;;;;2.00;1.17;;;6.30;99.90;;;;;;5088663;28;20208;-72
2022/01/10 06:26:02;;;;;;;2.33;1.08;;;6.30;99.90;;;;;;5088096;28;20235;-71
2022/01/10 06:28:33;;;;;;;1.50;1.40;;;6.20;99.90;;;;;;5088020;28;20209;-71
2022/01/10 06:31:04;;;;;;;1.10;1.00;;;6.20;99.90;;;;;;5087711;28;20728;-68
2022/01/10 06:33:35;;;;;;;1.30;1.20;;;6.20;99.90;;;;;;5087210;28;20216;-68
2022/01/10 06:36:08;;;;;;;1.48;1.20;;;6.20;99.90;;;;;;5088371;28;20212;-68
2022/01/10 06:38:41;;;;;;;1.02;1.00;;;6.10;99.90;;;;;;5079627;28;20220;-67
2022/01/10 06:41:12;;;;;;;1.33;1.23;;;6.10;99.90;;;;;;5087012;28;20223;-69
2022/01/10 06:43:42;;;;;;;1.40;1.30;;;6.10;99.90;;;;;;5082479;28;20643;-74
2022/01/10 06:46:13;;;;;;;1.10;1.10;;;6.20;99.90;;;;;;5085672;28;20215;-76
2022/01/10 06:48:44;;;;;;;1.20;1.15;;;6.20;99.90;;;;;;5077263;28;20200;-72
2022/01/10 06:51:17;;;;;;;1.52;1.00;;;6.10;99.90;;;;;;5085209;28;20206;-71
2022/01/10 06:53:50;;;;;;;1.40;1.30;;;6.10;99.90;;;;;;5083447;28;20208;-75
2022/01/10 06:56:21;;;;;;;1.60;1.13;;;6.10;99.90;;;;;;5079821;28;20221;-77
2022/01/10 06:58:53;;;;;;;1.27;1.17;;;6.10;99.90;;;;;;5084069;28;20233;-74
2022/01/10 07:01:24;;;;;;;1.33;1.23;;;6.10;99.90;;;;;;5083478;28;20243;-74
2022/01/10 07:03:57;;;;;;;1.45;1.35;;;6.20;99.90;;;;;;5089347;28;20613;-75
2022/01/10 07:06:28;;;;;;;1.00;1.00;;;6.20;99.90;;;;;;5087350;28;20299;-74
2022/01/10 07:09:00;;;;;;;1.30;1.17;;;6.10;99.90;;;;;;5087690;28;20236;-75
2022/01/10 07:11:31;;;;;;;1.80;1.08;;;6.10;99.90;;;;;;5086170;28;20208;-74
2022/01/10 07:14:02;;;;;;;1.83;1.38;;;6.10;99.90;;;;;;5081904;28;20213;-75
2022/01/10 07:16:34;;;;;;;1.30;1.23;;;6.00;99.90;;;;;;5077642;28;20220;-76
2022/01/10 07:19:05;;;;;;;1.20;1.10;;;6.00;99.90;;;;;;5083442;28;20284;-75
2022/01/10 07:21:38;;;;;;;1.27;1.17;;;6.00;99.90;;;;;;5087449;28;20293;-75
2022/01/10 07:24:11;;;;;;;1.20;1.20;;;6.00;99.90;;;;;;5088048;28;20201;-76
2022/01/10 07:26:43;;;;;;;1.30;1.20;;;6.00;99.90;;;;;;5086547;28;20208;-74
2022/01/10 07:29:13;;;;;;;1.25;1.15;;;6.00;99.90;;;;;;5086689;28;20216;-75
2022/01/10 07:31:45;;;;;;;1.42;1.27;;;5.90;99.90;;;;;;5078504;28;20253;-75
2022/01/10 07:34:16;;;;;;;1.48;1.17;;;5.90;99.90;;;;;;5087333;28;20279;-75
2022/01/10 07:36:50;;;;;;;1.90;1.13;;;5.90;99.90;;;;;;5086386;28;20227;-76
2022/01/10 07:39:22;;;;;;;1.63;1.30;;;5.90;99.90;;;;;;5087091;28;20634;-75
2022/01/10 07:41:53;;;;;;;2.25;1.27;;;5.90;99.90;;;;;;5085357;28;20220;-75
2022/01/10 07:44:24;;;;;;;1.23;1.20;;;5.90;99.90;;;;;;5087074;28;20216;-76
2022/01/10 07:46:56;;;;;;;3.10;1.70;;;5.90;99.90;;;;;;5080792;28;20213;-75
2022/01/10 07:49:27;;;;;;;1.58;1.48;;;5.90;99.90;;;;;;5081836;28;20571;-74
2022/01/10 07:51:58;;;;;;;1.35;1.20;;;6.00;99.90;;;;;;5087780;28;20209;-75
2022/01/10 07:54:30;;;;;;;1.52;1.42;;;5.90;99.90;;;;;;5087434;28;20215;-76
2022/01/10 07:57:01;;;;;;;1.10;1.10;;;5.90;99.90;;;;;;5086183;28;20212;-75
2022/01/10 07:59:32;;;;;;;1.55;1.45;;;5.90;99.90;;;;;;5087996;28;20220;-74
2022/01/10 08:02:03;;;;;;;3.45;1.45;;;5.80;99.90;;;;;;5087360;28;20235;-74
2022/01/10 08:04:34;;;;;;;1.33;1.23;;;5.80;99.90;;;;;;5081281;28;20666;-74
2022/01/10 08:07:05;;;;;;;1.60;1.23;;;5.80;99.90;;;;;;5086616;28;20638;-74
2022/01/10 08:09:38;;;;;;;2.85;1.48;;;5.80;99.90;;;;;;5085256;28;20721;-74
2022/01/10 08:12:10;;;;;;;1.13;0.90;;;5.90;99.90;;;;;;5080771;28;20215;-74
2022/01/10 08:14:41;;;;;;;1.33;1.23;;;5.80;99.90;;;;;;5087853;28;20231;-74
2022/01/10 08:17:12;;;;;;;2.05;1.52;;;5.80;99.90;;;;;;5086994;28;20220;-74
2022/01/10 08:19:43;;;;;;;1.48;1.38;;;5.70;99.90;;;;;;5081129;28;20666;-74
2022/01/10 08:22:14;;;;;;;1.83;1.13;;;5.70;99.90;;;;;;5087022;28;20225;-73
2022/01/10 08:24:47;;;;;;;1.38;1.20;;;5.60;99.90;;;;;;5087898;28;20575;-73
2022/01/10 08:27:18;;;;;;;1.45;1.35;;;5.70;99.90;;;;;;5085928;28;20204;-74
2022/01/10 08:29:49;;;;;;;1.13;1.10;;;5.70;99.90;;;;;;5086474;28;20579;-74
2022/01/10 11:54:19;;;;;;;1.77;1.67;;;5.50;99.90;;;;;;5010500;28;20231;-70
2022/01/10 11:56:52;;;;;;;1.60;1.50;;;5.50;99.90;;;;;;5061551;28;20325;-73
2022/01/10 12:02:48;;;;;;;1.55;1.45;;;5.50;99.90;;;;;;5064537;28;20224;-73
2022/01/10 12:05:22;;;;;;;1.88;1.63;;;5.50;99.90;;;;;;5068646;28;20293;-70
2022/01/10 12:07:53;;;;;;;2.20;2.00;;;5.50;99.90;;;;;;5069496;28;20237;-71
2022/01/10 12:10:30;;;;;;;2.78;2.00;;;5.60;99.90;;;;;;5068106;28;20719;-70
2022/01/10 12:13:06;;;;;;;2.30;2.05;;;5.60;99.90;;;;;;5058564;28;20221;-72
2022/01/10 12:15:37;;;;;;;2.78;1.77;;;5.60;99.90;;;;;;5063006;28;20212;-73
2022/01/10 12:18:09;;;;;;;3.17;2.97;;;5.60;99.90;;;;;;5072592;28;20229;-71
2022/01/10 12:20:41;;;;;;;2.88;2.30;;;5.60;99.90;;;;;;5069772;28;20237;-71
2022/01/10 12:23:14;;;;;;;2.15;2.05;;;5.60;99.90;;;;;;5070726;28;20707;-71
2022/01/10 12:25:45;;;;;;;2.40;2.30;;;5.60;99.90;;;;;;5071129;28;20219;-71
2022/01/10 12:28:17;;;;;;;1.90;1.80;;;5.60;99.90;;;;;;5070857;28;20220;-71
2022/01/10 12:30:48;;;;;;;2.10;2.00;;;5.60;99.90;;;;;;5067815;28;20221;-69
2022/01/10 12:33:19;;;;;;;2.03;1.80;;;5.60;99.90;;;;;;5071048;28;20214;-71
2022/01/10 12:35:52;;;;;;;1.92;1.83;;;5.60;99.90;;;;;;5078895;28;20706;-72
2022/01/10 12:38:23;;;;;;;2.58;2.08;;;5.60;99.90;;;;;;5065199;28;20299;-71
2022/01/10 12:40:55;;;;;;;2.40;2.20;;;5.60;99.90;;;;;;5074264;28;20645;-72
2022/01/10 12:43:26;;;;;;;1.65;1.55;;;5.60;99.90;;;;;;5065286;28;20349;-71
2022/01/10 12:45:58;;;;;;;2.30;2.10;;;5.60;99.90;;;;;;5069523;28;20286;-71
2022/01/10 12:48:32;;;;;;;2.50;2.30;;;5.70;99.90;;;;;;5068479;28;20215;-72
2022/01/10 12:51:08;;;;;;;2.20;2.10;;;5.60;99.90;;;;;;5067859;28;20229;-71
2022/01/10 12:53:59;;;;;;;2.00;1.90;;;5.70;99.90;;;;;;5063724;28;20213;-72
2022/01/10 12:56:29;;;;;;;2.25;2.10;;;5.70;99.90;;;;;;5070150;28;20579;-72
2022/01/10 12:59:00;;;;;;;2.30;2.10;;;5.70;99.90;;;;;;5066906;28;20213;-71
2022/01/10 13:01:32;;;;;;;2.30;2.10;;;5.70;99.90;;;;;;5068764;28;20213;-71
2022/01/10 13:04:05;;;;;;;2.00;1.90;;;5.80;99.90;;;;;;5069464;28;20240;-71
2022/01/10 13:06:41;;;;;;;2.38;2.22;;;5.80;99.90;;;;;;5064549;28;20312;-72
2022/01/10 13:09:13;;;;;;;2.30;2.20;;;5.80;99.90;;;;;;5068465;28;20772;-72
2022/01/10 13:11:46;;;;;;;2.60;2.40;;;5.80;99.90;;;;;;5069295;28;20333;-71
2022/01/10 13:14:19;;;;;;;2.20;2.10;;;5.90;99.90;;;;;;5058712;28;20709;-71
2022/01/10 13:17:01;;;;;;;2.17;1.63;;;5.90;99.90;;;;;;5066232;28;20213;-72
2022/01/10 13:19:32;;;;;;;3.08;2.38;;;5.90;99.90;;;;;;5068208;28;20205;-72
2022/01/10 13:22:33;;;;;;;2.30;2.20;;;5.90;99.90;;;;;;5074817;28;20209;-70
2022/01/10 13:25:12;;;;;;;2.15;2.05;;;5.90;99.90;;;;;;5067775;28;20574;-71
2022/01/10 13:27:50;;;;;;;2.70;2.50;;;5.90;99.90;;;;;;5065434;28;20302;-71
2022/01/10 13:30:25;;;;;;;2.92;2.60;;;5.90;99.90;;;;;;5072184;28;20660;-71
2022/01/10 13:32:57;;;;;;;2.22;2.13;;;5.90;99.90;;;;;;5075108;28;20298;-72
2022/01/10 13:35:29;;;;;;;2.30;2.10;;;6.00;99.90;;;;;;5064364;28;20227;-72
2022/01/10 13:38:05;;;;;;;2.53;2.20;;;6.00;99.90;;;;;;5067543;28;20701;-71
2022/01/10 13:40:42;;;;;;;2.55;2.35;;;6.00;99.90;;;;;;5070861;28;20320;-71
2022/01/10 13:43:15;;;;;;;2.35;1.92;;;6.00;99.90;;;;;;5073345;28;20681;-72
2022/01/10 13:45:51;;;;;;;2.38;2.15;;;6.00;99.90;;;;;;5072389;28;20227;-71
2022/01/10 13:48:23;;;;;;;2.25;2.05;;;5.90;99.90;;;;;;5080759;28;20221;-71
2022/01/10 13:50:57;;;;;;;2.47;2.28;;;6.00;99.90;;;;;;5073025;28;20743;-71
2022/01/10 13:53:31;;;;;;;2.15;2.05;;;6.00;99.90;;;;;;5067121;28;20209;-71
2022/01/10 13:56:12;;;;;;;3.00;2.28;;;6.00;99.90;;;;;;5069455;28;20225;-71
2022/01/10 13:58:45;;;;;;;2.10;2.00;;;6.00;99.90;;;;;;5060553;28;20656;-71
2022/01/10 14:01:17;;;;;;;2.70;2.50;;;6.00;99.90;;;;;;5077714;28;20437;-71
2022/01/10 14:03:50;;;;;;;2.45;2.25;;;6.00;99.90;;;;;;5071074;28;20225;-71
2022/01/10 14:06:22;;;;;;;2.60;2.40;;;6.00;99.90;;;;;;5075640;28;20262;-71
2022/01/10 14:08:57;;;;;;;2.08;1.98;;;6.00;99.90;;;;;;5065033;28;20309;-71
2022/01/10 14:11:30;;;;;;;2.40;2.30;;;6.00;99.90;;;;;;5065123;28;20238;-71
2022/01/10 14:14:03;;;;;;;3.22;2.92;;;6.00;99.90;;;;;;5067680;28;20217;-68
2022/01/10 14:16:39;;;;;;;2.95;2.30;;;6.10;99.90;;;;;;5069945;28;20235;-69
2022/01/10 14:22:53;;;;;;;2.50;2.30;;;6.20;99.90;;;;;;5070566;28;20217;-70
2022/01/10 14:25:26;;;;;;;3.17;2.50;;;6.20;99.90;;;;;;5065094;28;20264;-71
2022/01/10 14:36:05;;;;;;;3.20;1.95;;;6.30;99.90;;;;;;5037928;28;20232;-70
2022/01/10 14:38:38;;;;;;;2.72;2.53;;;6.30;99.90;;;;;;5046004;28;20263;-69
2022/01/10 14:41:11;;;;;;;2.78;2.05;;;6.40;99.90;;;;;;5046556;28;20317;-70
2022/01/10 14:43:44;;;;;;;1.92;1.83;;;6.40;99.90;;;;;;5046072;28;20305;-70
2022/01/10 14:46:17;;;;;;;2.40;2.30;;;6.40;99.90;;;;;;5046284;28;20218;-71
2022/01/10 14:48:48;;;;;;;3.03;2.65;;;6.40;99.90;;;;;;5047272;28;20717;-71
2022/01/10 14:54:12;;;;;;;2.05;1.85;;;6.40;99.90;;;;;;5036470;28;20222;-71
2022/01/10 14:56:53;;;;;;;3.58;2.35;;;6.40;99.90;;;;;;5059203;28;20312;-71
2022/01/10 14:59:24;;;;;;;2.28;2.17;;;6.30;99.90;;;;;;5145097;22;20319;-72
2022/01/10 15:01:55;;;;;;;2.55;2.03;;;6.30;99.90;;;;;;5065027;28;20210;-71
2022/01/10 15:04:26;;;;;;;2.13;1.95;;;6.50;99.90;;;;;;5067125;28;20229;-71
2022/01/10 15:06:57;;;;;;;2.65;2.45;;;6.50;99.90;;;;;;5057578;28;20236;-71
2022/01/10 15:09:28;;;;;;;2.80;2.60;;;6.50;99.90;;;;;;5054390;28;20300;-71
2022/01/10 15:12:03;;;;;;;3.60;2.80;;;6.50;99.90;;;;;;5066817;28;20300;-71
2022/01/10 15:14:34;;;;;;;3.47;3.20;;;6.50;99.90;;;;;;5059127;28;20628;-72
2022/01/10 15:17:05;;;;;;;4.53;2.00;;;6.50;99.90;;;;;;5057746;28;20220;-71
2022/01/10 15:19:36;;;;;;;7.32;3.00;;;6.60;99.90;;;;;;5061246;28;20217;-71
2022/01/10 15:22:07;;;;;;;5.18;4.68;;;6.60;99.90;;;;;;5054992;28;20216;-71
2022/01/10 15:24:38;;;;;;;4.97;4.43;;;6.50;99.90;;;;;;5063739;28;20232;-71
2022/01/10 15:27:11;;;;;;;7.55;5.03;;;6.40;99.90;;;;;;5065629;28;20312;-71
2022/01/10 15:29:41;;;;;;;5.28;4.78;;;6.20;99.90;;;;;;5064287;28;20376;-71
2022/01/10 15:32:12;;;;;;;5.75;5.15;;;6.30;99.90;;;;;;5066973;28;20560;-70
2022/01/10 15:34:43;;;;;;;5.63;5.13;;;5.90;99.90;;;;;;5058781;28;20220;-69
2022/01/10 15:37:14;;;;;;;9.13;5.65;;;5.70;99.90;;;;;;5060662;28;20224;-69
2022/01/10 15:39:45;;;;;;;7.53;5.97;;;5.60;99.90;;;;;;5058322;28;20221;-68
2022/01/10 15:42:18;;;;;;;6.15;5.40;;;5.50;99.90;;;;;;5065750;28;20223;-68
2022/01/10 15:44:52;;;;;;;5.60;4.90;;;5.40;99.90;;;;;;5069190;28;20232;-73
2022/01/10 15:47:23;;;;;;;6.30;5.50;;;5.40;99.90;;;;;;5063829;28;20231;-69
2022/01/10 15:49:54;;;;;;;9.43;4.97;;;5.40;99.90;;;;;;5066525;28;20753;-68
2022/01/10 15:52:25;;;;;;;6.38;4.90;;;5.20;99.90;;;;;;5057390;28;20227;-70
2022/01/10 15:54:56;;;;;;;6.10;5.10;;;5.20;99.90;;;;;;5067449;28;20703;-68
2022/01/10 15:57:28;;;;;;;6.03;5.43;;;5.20;99.90;;;;;;5065990;28;20228;-70
2022/01/10 15:59:59;;;;;;;5.18;4.68;;;5.10;99.90;;;;;;5057853;28;20240;-75
2022/01/10 16:02:30;;;;;;;8.38;5.82;;;5.00;99.90;;;;;;5068566;28;20598;-71
2022/01/10 16:05:01;;;;;;;7.57;5.40;;;5.10;99.90;;;;;;5063125;28;20304;-69
2022/01/10 16:07:32;;;;;;;5.63;5.13;;;5.10;99.90;;;;;;5057165;28;20300;-67
2022/01/10 16:10:04;;;;;;;13.73;6.85;;;5.20;99.90;;;;;;5047354;28;20695;-71
2022/01/10 16:12:38;;;;;;;165.45;35.30;;;5.20;99.90;;;;;;5060149;28;20217;-66
2022/01/10 16:15:09;;;;;;;5.38;4.85;;;5.20;99.90;;;;;;5060478;28;20304;-69
2022/01/10 16:17:40;;;;;;;5.60;4.82;;;5.10;99.90;;;;;;5058489;28;20241;-68
2022/01/10 16:20:12;;;;;;;9.15;5.43;;;5.00;99.90;;;;;;5054712;28;20218;-67
2022/01/10 16:22:46;;;;;;;7.05;5.30;;;5.00;99.90;;;;;;5053301;28;20214;-68
2022/01/10 16:25:17;;;;;;;6.75;6.13;;;5.00;99.90;;;;;;5064110;28;20236;-69
2022/01/10 16:27:50;;;;;;;5.90;5.22;;;5.00;99.90;;;;;;5067101;28;20216;-67
2022/01/10 16:30:21;;;;;;;5.22;4.72;;;5.00;99.90;;;;;;5066727;28;20249;-67
2022/01/10 16:32:52;;;;;;;8.70;7.57;;;5.10;99.90;;;;;;5063247;28;20249;-66
2022/01/10 16:35:23;;;;;;;9.32;6.55;;;5.00;99.90;;;;;;5074836;28;20509;-65
2022/01/10 16:37:55;;;;;;;7.05;5.93;;;4.90;99.90;;;;;;5067361;28;20232;-70
2022/01/10 16:40:25;;;;;;;7.10;5.90;;;5.00;99.90;;;;;;5067975;28;20248;-72
2022/01/10 16:42:58;;;;;;;6.15;4.53;;;5.00;99.90;;;;;;5066898;28;20213;-67
2022/01/10 16:45:29;;;;;;;5.55;4.57;;;4.90;99.90;;;;;;5058010;28;20229;-71
2022/01/10 16:48:01;;;;;;;6.90;5.10;;;4.90;99.90;;;;;;5064672;28;20224;-68
2022/01/10 16:50:32;;;;;;;4.72;4.32;;;5.00;99.90;;;;;;5050976;28;20218;-72
2022/01/10 16:53:03;;;;;;;4.05;3.65;;;5.00;99.90;;;;;;5068652;28;20276;-73
2022/01/10 16:55:35;;;;;;;6.30;4.72;;;5.10;99.90;;;;;;5067853;28;20305;-68
2022/01/10 16:58:12;;;;;;;4.95;4.40;;;5.10;99.90;;;;;;5068185;28;20232;-71
2022/01/10 17:00:44;;;;;;;4.85;4.28;;;5.10;99.90;;;;;;5059533;28;20693;-71
2022/01/10 17:03:14;;;;;;;4.00;3.70;;;5.10;99.90;;;;;;5063037;28;20296;-64
2022/01/10 17:05:46;;;;;;;6.75;4.65;;;5.10;99.90;;;;;;5054302;28;20600;-67
2022/01/10 17:08:20;;;;;;;4.28;3.88;;;5.20;99.90;;;;;;5048577;28;20225;-67
2022/01/10 17:10:53;;;;;;;4.82;4.43;;;5.20;99.90;;;;;;5057338;28;20209;-67